Time;durP1;ratioP1;P1;durP2;ratioP2;P2;SDS_P1;SDS_P2;PMS_P1;PMS_P2;Temp;Humidity;BMP_temperature;BMP_pressure;BME280_temperature;BME280_humidity;BME280_pressure;Samples;Min_cycle;Max_cycle;Signal;HPM_P1;HPM_P2
2024/01/31 00:00:31;;;;;;;3.45;2.13;;;21.00;48.20;;;;;;5078858;28;20094;-64
2024/01/31 00:02:56;;;;;;;3.70;2.50;;;21.00;48.20;;;;;;5079893;28;20044;-64
2024/01/31 00:05:22;;;;;;;4.03;2.30;;;21.00;48.20;;;;;;5081757;28;20032;-64
2024/01/31 00:07:48;;;;;;;3.47;2.30;;;21.00;48.20;;;;;;5080780;28;20676;-63
2024/01/31 00:10:14;;;;;;;3.38;2.20;;;21.00;48.20;;;;;;5081480;28;20073;-64
2024/01/31 00:12:40;;;;;;;3.67;2.40;;;21.00;48.20;;;;;;5071699;28;20031;-63
2024/01/31 00:15:06;;;;;;;3.08;2.10;;;21.00;48.20;;;;;;5079221;28;20051;-63
2024/01/31 00:17:31;;;;;;;4.32;2.10;;;21.00;48.20;;;;;;5080843;28;20028;-64
2024/01/31 00:19:57;;;;;;;3.47;2.17;;;20.90;48.20;;;;;;5080210;28;20036;-63
2024/01/31 00:22:23;;;;;;;3.67;2.17;;;21.00;48.20;;;;;;5082297;28;20028;-67
2024/01/31 00:24:48;;;;;;;3.47;2.20;;;20.90;48.20;;;;;;5079599;28;20016;-67
2024/01/31 00:27:14;;;;;;;3.00;2.10;;;20.90;48.20;;;;;;5080659;28;20095;-67
2024/01/31 00:29:40;;;;;;;3.22;2.35;;;20.90;48.20;;;;;;5079146;28;20032;-67
2024/01/31 00:32:06;;;;;;;3.72;2.20;;;20.90;48.20;;;;;;5080307;28;20041;-67
2024/01/31 00:34:32;;;;;;;3.17;1.95;;;20.90;48.20;;;;;;5083109;28;20099;-67
2024/01/31 00:36:58;;;;;;;3.58;2.30;;;20.80;48.10;;;;;;5077052;28;20510;-67
2024/01/31 00:39:28;;;;;;;3.20;1.95;;;20.80;48.10;;;;;;5079981;28;20032;-67
2024/01/31 00:41:54;;;;;;;3.15;2.00;;;20.90;48.20;;;;;;5080647;28;20020;-63
2024/01/31 00:44:20;;;;;;;3.30;2.10;;;20.90;48.20;;;;;;5077685;28;20024;-63
2024/01/31 00:46:48;;;;;;;2.80;1.90;;;20.80;48.10;;;;;;5080370;28;20382;-63
2024/01/31 00:49:14;;;;;;;3.00;2.00;;;20.80;48.10;;;;;;5080045;28;20040;-63
2024/01/31 00:51:44;;;;;;;3.45;2.03;;;20.80;48.10;;;;;;5080804;28;20037;-62
2024/01/31 00:54:12;;;;;;;3.38;2.10;;;20.80;48.10;;;;;;5080608;28;20498;-61
2024/01/31 00:56:38;;;;;;;3.33;2.10;;;20.80;48.10;;;;;;5079745;28;20033;-62
2024/01/31 00:59:04;;;;;;;2.90;2.03;;;20.80;48.10;;;;;;5077879;28;20032;-61
2024/01/31 01:01:30;;;;;;;3.00;2.10;;;20.80;48.60;;;;;;5070575;28;20024;-62
2024/01/31 01:03:56;;;;;;;2.88;2.00;;;20.70;48.10;;;;;;5060751;28;20035;-61
2024/01/31 01:06:21;;;;;;;2.85;1.90;;;20.70;48.10;;;;;;5080974;28;20133;-63
2024/01/31 01:08:47;;;;;;;3.35;2.33;;;20.70;48.10;;;;;;5080674;28;20061;-62
2024/01/31 01:11:12;;;;;;;2.53;1.70;;;20.70;48.10;;;;;;5097535;28;20084;-62
2024/01/31 01:13:38;;;;;;;3.22;2.00;;;20.70;48.10;;;;;;5070059;28;20039;-61
2024/01/31 01:16:04;;;;;;;3.35;1.90;;;20.70;48.10;;;;;;5077708;28;20028;-61
2024/01/31 01:18:30;;;;;;;2.67;1.77;;;20.70;48.10;;;;;;5079260;28;20123;-61
2024/01/31 01:20:55;;;;;;;3.05;1.90;;;20.70;48.10;;;;;;5080338;28;20077;-61
2024/01/31 01:23:21;;;;;;;3.35;1.95;;;20.70;48.10;;;;;;5060659;28;20032;-61
2024/01/31 01:25:47;;;;;;;3.22;1.98;;;20.70;48.20;;;;;;5079338;28;20039;-64
2024/01/31 01:28:13;;;;;;;3.33;2.03;;;20.70;48.10;;;;;;5079167;28;20040;-60
2024/01/31 01:30:38;;;;;;;2.97;1.90;;;20.70;48.10;;;;;;5058439;28;20086;-74
2024/01/31 01:33:04;;;;;;;3.25;2.05;;;20.70;48.10;;;;;;5078186;28;20050;-72
2024/01/31 01:35:30;;;;;;;3.00;1.98;;;20.60;48.00;;;;;;5081224;28;20039;-71
2024/01/31 01:37:55;;;;;;;2.78;1.80;;;20.60;48.10;;;;;;5078734;28;20020;-74
2024/01/31 01:40:21;;;;;;;3.45;2.03;;;20.60;48.10;;;;;;5081034;28;20480;-74
2024/01/31 01:42:47;;;;;;;3.50;1.92;;;20.60;48.10;;;;;;5062278;28;20109;-72
2024/01/31 01:45:12;;;;;;;3.15;1.83;;;20.60;48.10;;;;;;5076740;28;20028;-73
2024/01/31 01:47:42;;;;;;;3.67;2.20;;;20.60;48.10;;;;;;5081431;28;20161;-74
2024/01/31 01:50:08;;;;;;;2.85;1.80;;;20.60;48.10;;;;;;5077290;28;20041;-71
2024/01/31 01:52:34;;;;;;;3.13;1.90;;;20.60;48.10;;;;;;5079342;28;20067;-62
2024/01/31 01:55:03;;;;;;;2.80;1.70;;;20.60;48.60;;;;;;5069287;28;20066;-63
2024/01/31 01:57:30;;;;;;;3.10;1.80;;;20.60;48.10;;;;;;5069982;28;20035;-62
2024/01/31 01:59:57;;;;;;;3.25;2.10;;;20.50;48.10;;;;;;5074988;28;20477;-61
2024/01/31 02:02:23;;;;;;;2.55;1.73;;;20.50;48.10;;;;;;5058798;28;20023;-67
2024/01/31 02:04:49;;;;;;;2.75;1.80;;;20.50;48.10;;;;;;5078306;28;20036;-67
2024/01/31 02:07:20;;;;;;;3.10;1.90;;;20.50;48.10;;;;;;5078566;28;20024;-67
2024/01/31 02:09:46;;;;;;;2.90;1.73;;;20.50;48.10;;;;;;5079006;28;20031;-67
2024/01/31 02:12:12;;;;;;;2.45;1.75;;;20.50;48.20;;;;;;5078203;28;20043;-67
2024/01/31 02:14:38;;;;;;;3.20;2.00;;;20.50;48.20;;;;;;5076798;28;20469;-67
2024/01/31 02:17:03;;;;;;;4.05;2.00;;;20.50;48.20;;;;;;5078217;28;20040;-67
2024/01/31 02:19:29;;;;;;;2.90;2.00;;;20.50;48.20;;;;;;5057287;28;20457;-67
2024/01/31 02:22:00;;;;;;;2.70;1.83;;;20.50;48.20;;;;;;5079474;28;20024;-66
2024/01/31 02:24:25;;;;;;;2.92;1.90;;;20.50;48.20;;;;;;5078074;28;20094;-66
2024/01/31 02:26:51;;;;;;;2.60;1.65;;;20.40;48.10;;;;;;5076243;28;20021;-67
2024/01/31 02:29:16;;;;;;;2.63;1.90;;;20.40;48.10;;;;;;5079246;28;20039;-67
2024/01/31 02:31:42;;;;;;;2.70;1.70;;;20.40;48.10;;;;;;5077717;28;20032;-67
2024/01/31 02:34:08;;;;;;;2.63;1.60;;;20.40;48.20;;;;;;5080540;28;20489;-67
2024/01/31 02:36:33;;;;;;;3.00;2.05;;;20.40;48.10;;;;;;5080310;28;20064;-67
2024/01/31 02:38:59;;;;;;;2.90;2.00;;;20.40;48.20;;;;;;5076334;28;20047;-67
2024/01/31 02:41:24;;;;;;;2.58;1.60;;;20.40;48.20;;;;;;5079813;28;20035;-69
2024/01/31 02:43:50;;;;;;;2.95;1.80;;;20.40;48.20;;;;;;5078330;28;20512;-73
2024/01/31 02:46:16;;;;;;;2.70;1.65;;;20.40;48.20;;;;;;5076165;28;20019;-73
2024/01/31 02:48:41;;;;;;;2.85;1.80;;;20.40;48.20;;;;;;5078020;28;20087;-74
2024/01/31 02:51:07;;;;;;;2.53;1.70;;;20.30;48.10;;;;;;5069528;28;20033;-73
2024/01/31 02:53:33;;;;;;;2.30;1.60;;;20.40;48.20;;;;;;5075704;28;20029;-74
2024/01/31 02:55:58;;;;;;;2.90;1.80;;;20.30;48.20;;;;;;5077968;28;20146;-73
2024/01/31 02:58:24;;;;;;;2.65;1.83;;;20.40;48.20;;;;;;5068789;28;20047;-72
2024/01/31 03:00:49;;;;;;;2.30;1.60;;;20.30;48.20;;;;;;5077871;28;20115;-62
2024/01/31 03:03:15;;;;;;;2.33;1.60;;;20.30;48.70;;;;;;5079114;28;20028;-61
2024/01/31 03:05:41;;;;;;;2.90;1.60;;;20.30;48.20;;;;;;5068887;28;20388;-63
2024/01/31 03:08:06;;;;;;;3.08;1.80;;;20.30;48.20;;;;;;5078252;28;20107;-61
2024/01/31 03:10:32;;;;;;;2.75;1.77;;;20.30;48.20;;;;;;5079026;28;20363;-64
2024/01/31 03:12:58;;;;;;;2.78;1.67;;;20.30;48.20;;;;;;5077478;28;20484;-63
2024/01/31 03:15:24;;;;;;;2.28;1.60;;;20.30;48.20;;;;;;5077017;28;20103;-63
2024/01/31 03:17:49;;;;;;;2.60;1.60;;;20.30;48.30;;;;;;5078761;28;20499;-63
2024/01/31 03:20:15;;;;;;;2.40;1.50;;;20.20;48.70;;;;;;5079455;28;20051;-63
2024/01/31 03:22:40;;;;;;;2.30;1.60;;;20.30;48.30;;;;;;5079111;28;20066;-63
2024/01/31 03:25:07;;;;;;;2.75;1.73;;;20.30;48.30;;;;;;5081526;28;20105;-63
2024/01/31 03:27:33;;;;;;;2.38;1.63;;;20.20;48.20;;;;;;5081340;28;20078;-63
2024/01/31 03:30:01;;;;;;;2.45;1.58;;;20.20;48.20;;;;;;5079684;28;20056;-64
2024/01/31 03:32:30;;;;;;;2.90;1.70;;;20.20;48.20;;;;;;5080018;28;20051;-64
2024/01/31 03:34:55;;;;;;;2.00;1.50;;;20.20;48.30;;;;;;5080235;28;20028;-64
2024/01/31 03:37:21;;;;;;;2.80;1.70;;;20.20;48.30;;;;;;5082767;28;20431;-63
2024/01/31 03:39:46;;;;;;;2.72;1.50;;;20.20;48.30;;;;;;5082333;28;20028;-63
2024/01/31 03:42:12;;;;;;;1.95;1.38;;;20.20;48.30;;;;;;5081559;28;20099;-63
2024/01/31 03:44:38;;;;;;;2.38;1.60;;;20.20;48.30;;;;;;5082249;28;20031;-63
2024/01/31 03:47:03;;;;;;;2.38;1.50;;;20.20;48.30;;;;;;5079989;28;20473;-64
2024/01/31 03:49:30;;;;;;;2.10;1.50;;;20.20;48.40;;;;;;5081552;28;20028;-63
2024/01/31 03:51:56;;;;;;;2.20;1.50;;;20.20;48.40;;;;;;5081443;28;20062;-63
2024/01/31 03:54:21;;;;;;;2.60;1.67;;;20.20;48.40;;;;;;5080724;28;20111;-63
2024/01/31 03:56:48;;;;;;;2.40;1.70;;;20.10;48.90;;;;;;5079264;28;20029;-63
2024/01/31 03:59:13;;;;;;;2.30;1.52;;;20.20;48.40;;;;;;5080430;28;20032;-64
2024/01/31 04:01:39;;;;;;;2.50;1.60;;;20.20;48.40;;;;;;5081414;28;20024;-63
2024/01/31 04:04:05;;;;;;;2.30;1.50;;;20.20;48.90;;;;;;5080335;28;20025;-63
2024/01/31 04:06:30;;;;;;;2.28;1.45;;;20.10;48.30;;;;;;5078502;28;20012;-63
2024/01/31 04:08:56;;;;;;;2.30;1.70;;;20.10;48.40;;;;;;5080889;28;20036;-64
2024/01/31 04:11:21;;;;;;;2.65;1.65;;;20.10;48.40;;;;;;5081808;28;20427;-67
2024/01/31 04:13:47;;;;;;;2.92;1.70;;;20.10;48.40;;;;;;5081677;28;20038;-67
2024/01/31 04:16:16;;;;;;;2.90;1.77;;;20.10;48.40;;;;;;5079520;28;20119;-67
2024/01/31 04:18:41;;;;;;;2.80;1.90;;;20.10;48.40;;;;;;5080839;28;20032;-67
2024/01/31 04:21:07;;;;;;;2.65;1.60;;;20.10;48.50;;;;;;5079930;28;20090;-61
2024/01/31 04:23:33;;;;;;;2.53;1.80;;;20.10;48.50;;;;;;5063269;28;20016;-61
2024/01/31 04:26:00;;;;;;;2.40;1.60;;;20.10;48.50;;;;;;5063516;28;20547;-62
2024/01/31 04:28:25;;;;;;;2.30;1.63;;;20.10;48.50;;;;;;5079822;28;20089;-64
2024/01/31 04:30:51;;;;;;;2.40;1.70;;;20.10;48.50;;;;;;5094045;28;20021;-62
2024/01/31 04:33:17;;;;;;;2.45;1.58;;;20.10;48.50;;;;;;5079245;28;20028;-62
2024/01/31 04:35:42;;;;;;;2.42;1.70;;;20.10;48.50;;;;;;5070639;28;20553;-62
2024/01/31 04:38:08;;;;;;;2.33;1.55;;;20.00;48.50;;;;;;5078688;28;20032;-61
2024/01/31 04:40:34;;;;;;;1.98;1.52;;;20.00;48.60;;;;;;5080484;28;20027;-64
2024/01/31 04:42:59;;;;;;;2.08;1.45;;;20.00;48.60;;;;;;5078486;28;20031;-63
2024/01/31 04:45:25;;;;;;;2.38;1.60;;;20.00;48.60;;;;;;5079926;28;20025;-61
2024/01/31 04:47:51;;;;;;;2.13;1.50;;;20.00;48.60;;;;;;5078808;28;20546;-63
2024/01/31 04:50:16;;;;;;;2.70;1.90;;;20.00;48.70;;;;;;5078453;28;20044;-61
2024/01/31 04:52:42;;;;;;;2.50;1.60;;;20.00;48.70;;;;;;5096764;28;20031;-64
2024/01/31 04:55:08;;;;;;;2.42;1.70;;;20.00;48.70;;;;;;5078081;28;20036;-62
2024/01/31 04:57:33;;;;;;;2.80;1.80;;;20.00;48.70;;;;;;5060295;28;20035;-62
2024/01/31 04:59:59;;;;;;;2.47;1.60;;;20.00;48.60;;;;;;5080918;28;20046;-62
2024/01/31 05:02:25;;;;;;;2.78;1.70;;;20.00;48.60;;;;;;5077800;28;20025;-61
2024/01/31 05:04:50;;;;;;;2.33;1.63;;;20.00;48.60;;;;;;5071407;28;20028;-61
2024/01/31 05:07:16;;;;;;;1.90;1.45;;;20.00;48.60;;;;;;5082677;28;20025;-62
2024/01/31 05:09:42;;;;;;;2.78;1.80;;;20.00;48.60;;;;;;5079034;28;20028;-64
2024/01/31 05:12:07;;;;;;;2.17;1.60;;;20.00;48.70;;;;;;5077554;28;20039;-62
2024/01/31 05:14:33;;;;;;;1.98;1.55;;;20.00;48.70;;;;;;5079003;28;20033;-64
2024/01/31 05:16:59;;;;;;;2.40;1.70;;;20.00;48.80;;;;;;5079654;28;20085;-61
2024/01/31 05:19:24;;;;;;;2.50;1.67;;;20.00;49.30;;;;;;5081008;28;20035;-63
2024/01/31 05:21:54;;;;;;;2.42;1.55;;;20.00;48.80;;;;;;5082156;28;20039;-63
2024/01/31 05:24:20;;;;;;;2.80;1.67;;;19.90;48.80;;;;;;5079339;28;20070;-64
2024/01/31 05:26:47;;;;;;;2.60;1.70;;;19.90;48.80;;;;;;5076694;28;20484;-64
2024/01/31 05:29:14;;;;;;;2.70;1.60;;;19.90;48.80;;;;;;5062044;28;20497;-64
2024/01/31 05:31:39;;;;;;;2.38;1.70;;;19.90;48.80;;;;;;5077524;28;20025;-72
2024/01/31 05:34:05;;;;;;;2.50;1.60;;;19.90;48.80;;;;;;5078750;28;20032;-73
2024/01/31 05:36:31;;;;;;;2.85;1.83;;;19.90;48.90;;;;;;5078383;28;20073;-73
2024/01/31 05:38:57;;;;;;;2.33;1.67;;;19.90;48.90;;;;;;5077090;28;20136;-73
2024/01/31 05:41:23;;;;;;;2.35;1.65;;;19.90;48.90;;;;;;5079087;28;20924;-72
2024/01/31 05:43:48;;;;;;;2.35;1.60;;;19.90;49.00;;;;;;5077776;28;20519;-73
2024/01/31 05:46:16;;;;;;;2.97;2.05;;;19.90;49.00;;;;;;5078900;28;20031;-74
2024/01/31 05:48:42;;;;;;;3.90;2.75;;;19.90;49.20;;;;;;5079921;28;20027;-73
2024/01/31 05:51:08;;;;;;;3.90;2.60;;;19.90;49.30;;;;;;5080256;28;20024;-74
2024/01/31 05:53:34;;;;;;;3.78;2.60;;;20.00;49.40;;;;;;5079449;28;20393;-74
2024/01/31 05:56:00;;;;;;;3.53;2.38;;;20.00;49.50;;;;;;5068533;28;20038;-73
2024/01/31 05:58:26;;;;;;;3.70;2.35;;;20.00;49.50;;;;;;5079214;28;20468;-72
2024/01/31 06:00:52;;;;;;;3.75;2.38;;;20.00;49.50;;;;;;5077683;28;20027;-72
2024/01/31 06:03:18;;;;;;;3.45;2.28;;;20.00;49.50;;;;;;5074866;28;20028;-73
2024/01/31 06:05:43;;;;;;;3.80;2.30;;;20.00;49.50;;;;;;5078962;28;20106;-73
2024/01/31 06:08:09;;;;;;;2.55;2.00;;;20.00;49.50;;;;;;5069030;28;20575;-73
2024/01/31 06:10:35;;;;;;;3.30;2.10;;;20.00;49.40;;;;;;5080282;28;20027;-74
2024/01/31 06:13:00;;;;;;;2.97;2.00;;;20.00;49.40;;;;;;5077087;28;20024;-74
2024/01/31 06:15:26;;;;;;;2.80;2.17;;;20.00;49.40;;;;;;5076309;28;20457;-73
2024/01/31 06:17:52;;;;;;;2.90;2.03;;;20.00;49.40;;;;;;5077426;28;20059;-72
2024/01/31 06:20:19;;;;;;;2.95;2.00;;;19.90;49.30;;;;;;5078755;28;20488;-74
2024/01/31 06:22:45;;;;;;;3.33;2.13;;;20.00;49.50;;;;;;5078033;28;20091;-74
2024/01/31 06:25:10;;;;;;;2.90;2.00;;;19.90;49.40;;;;;;5076911;28;20060;-72
2024/01/31 06:27:36;;;;;;;3.50;2.05;;;19.90;49.40;;;;;;5078679;28;20020;-75
2024/01/31 06:30:03;;;;;;;3.90;2.20;;;20.00;49.40;;;;;;5079912;28;20142;-72
2024/01/31 06:32:34;;;;;;;3.30;1.98;;;19.90;49.40;;;;;;5077402;28;20028;-67
2024/01/31 06:35:00;;;;;;;4.40;2.53;;;19.90;49.40;;;;;;5078219;28;20464;-67
2024/01/31 06:37:27;;;;;;;3.08;2.00;;;19.90;49.40;;;;;;5079241;28;20039;-67
2024/01/31 06:39:54;;;;;;;3.45;2.05;;;20.00;49.60;;;;;;5078721;28;20024;-67
2024/01/31 06:42:20;;;;;;;3.50;2.00;;;19.90;49.40;;;;;;5078829;28;20112;-67
2024/01/31 06:44:45;;;;;;;3.17;1.92;;;20.00;49.40;;;;;;5075375;28;20037;-67
2024/01/31 06:47:11;;;;;;;3.22;2.13;;;19.90;49.90;;;;;;5071992;28;20028;-67
2024/01/31 06:49:37;;;;;;;4.95;2.28;;;19.90;49.40;;;;;;5077915;28;20468;-67
2024/01/31 06:52:03;;;;;;;3.78;2.28;;;19.90;49.40;;;;;;5079274;28;20024;-67
2024/01/31 06:54:28;;;;;;;3.80;2.10;;;19.90;49.40;;;;;;5078420;28;20104;-67
2024/01/31 06:56:54;;;;;;;3.50;2.10;;;19.90;49.40;;;;;;5077734;28;20400;-67
2024/01/31 06:59:20;;;;;;;3.03;2.10;;;19.90;49.30;;;;;;5079047;28;20141;-67
2024/01/31 07:01:45;;;;;;;3.35;1.83;;;19.90;49.30;;;;;;5079886;28;20038;-67
2024/01/31 07:04:11;;;;;;;3.17;2.00;;;19.90;49.90;;;;;;5081419;28;20024;-67
2024/01/31 07:06:37;;;;;;;5.43;2.10;;;19.90;49.30;;;;;;5080271;28;20024;-67
2024/01/31 07:09:02;;;;;;;3.55;2.08;;;19.90;49.30;;;;;;5080838;28;20029;-67
2024/01/31 07:11:28;;;;;;;3.88;2.00;;;19.90;49.30;;;;;;5082791;28;20377;-67
2024/01/31 07:13:54;;;;;;;3.00;2.00;;;19.90;49.30;;;;;;5080848;28;20051;-67
2024/01/31 07:16:19;;;;;;;2.83;1.90;;;19.90;49.30;;;;;;5072367;28;20082;-67
2024/01/31 07:18:45;;;;;;;3.10;1.90;;;19.90;49.30;;;;;;5080525;28;20120;-67
2024/01/31 07:21:22;;;;;;;3.67;2.10;;;19.90;49.30;;;;;;5080873;28;20028;-73
2024/01/31 07:23:47;;;;;;;3.38;2.00;;;19.90;49.30;;;;;;5080724;28;20043;-72
2024/01/31 07:26:24;;;;;;;4.05;2.22;;;19.90;49.40;;;;;;5080505;28;20033;-74
2024/01/31 07:28:51;;;;;;;3.58;2.03;;;19.90;49.30;;;;;;5080924;28;20452;-74
2024/01/31 07:31:16;;;;;;;3.28;2.00;;;19.90;49.30;;;;;;5072499;28;20031;-74
2024/01/31 07:33:42;;;;;;;3.45;2.20;;;19.90;49.30;;;;;;5082189;28;20043;-74
2024/01/31 07:36:08;;;;;;;3.20;1.98;;;19.90;49.30;;;;;;5082045;28;20032;-73
2024/01/31 07:38:34;;;;;;;3.10;1.90;;;19.90;49.30;;;;;;5079694;28;20463;-74
2024/01/31 07:40:59;;;;;;;3.13;1.80;;;19.90;49.30;;;;;;5081348;28;20460;-63
2024/01/31 07:43:25;;;;;;;3.80;2.20;;;19.90;49.30;;;;;;5078914;28;20103;-63
2024/01/31 07:45:51;;;;;;;2.70;1.80;;;19.90;49.30;;;;;;5071951;28;20452;-62
2024/01/31 07:48:17;;;;;;;3.83;2.20;;;19.90;49.30;;;;;;5062173;28;20020;-61
2024/01/31 07:50:43;;;;;;;3.08;2.00;;;19.90;49.30;;;;;;5081822;28;20574;-67
2024/01/31 07:53:08;;;;;;;3.42;2.15;;;19.90;49.30;;;;;;5078730;28;20051;-67
2024/01/31 07:55:34;;;;;;;4.10;2.10;;;19.90;49.30;;;;;;5084259;28;20028;-67
2024/01/31 07:58:00;;;;;;;3.78;2.33;;;19.80;49.20;;;;;;5081134;28;20024;-67
2024/01/31 08:00:27;;;;;;;2.60;1.80;;;19.90;49.30;;;;;;5083627;28;20440;-67
2024/01/31 08:02:52;;;;;;;2.70;1.83;;;19.90;49.30;;;;;;5080359;28;20529;-67
2024/01/31 08:05:18;;;;;;;3.92;2.20;;;19.80;49.20;;;;;;5082176;28;20028;-67
2024/01/31 08:07:44;;;;;;;3.47;2.00;;;19.80;49.20;;;;;;5081036;28;20658;-67
2024/01/31 08:10:13;;;;;;;4.18;2.10;;;19.80;49.20;;;;;;5079498;28;20449;-67
2024/01/31 08:12:43;;;;;;;3.72;2.17;;;19.90;49.30;;;;;;5082160;28;20067;-67
2024/01/31 08:15:08;;;;;;;2.92;1.73;;;19.80;49.20;;;;;;5081149;28;20097;-67
2024/01/31 08:17:34;;;;;;;3.17;2.00;;;19.80;49.20;;;;;;5078476;28;20037;-67
2024/01/31 08:20:00;;;;;;;4.18;2.35;;;19.80;49.20;;;;;;5080077;28;20032;-67
2024/01/31 08:22:26;;;;;;;3.58;2.15;;;19.80;49.20;;;;;;5082638;28;20024;-67
2024/01/31 08:24:52;;;;;;;3.38;1.75;;;19.80;49.20;;;;;;5080785;28;20477;-67
2024/01/31 08:27:18;;;;;;;4.28;2.10;;;19.80;49.20;;;;;;5077753;28;20023;-67
2024/01/31 08:29:44;;;;;;;2.88;2.05;;;19.80;49.20;;;;;;5081194;28;20562;-67
2024/01/31 08:32:10;;;;;;;2.60;1.60;;;19.80;49.20;;;;;;5080750;28;20035;-73
2024/01/31 08:34:36;;;;;;;3.38;1.83;;;19.80;49.20;;;;;;5078105;28;20028;-74
2024/01/31 08:37:02;;;;;;;2.88;1.88;;;19.80;49.20;;;;;;5080402;28;20021;-72
2024/01/31 08:39:29;;;;;;;2.85;1.83;;;19.80;49.20;;;;;;5080757;28;20067;-75
2024/01/31 08:41:55;;;;;;;2.80;1.80;;;19.80;49.20;;;;;;5080945;28;20073;-74
2024/01/31 08:44:21;;;;;;;4.03;2.58;;;19.80;49.20;;;;;;5061007;28;20123;-74
2024/01/31 08:46:47;;;;;;;3.15;2.00;;;19.80;49.20;;;;;;5080412;28;20118;-74
2024/01/31 08:49:12;;;;;;;3.33;2.00;;;19.80;49.20;;;;;;5077688;28;20039;-74
2024/01/31 08:51:38;;;;;;;3.65;2.17;;;19.80;49.20;;;;;;5079870;28;20032;-67
2024/01/31 08:54:05;;;;;;;2.70;1.88;;;19.80;49.20;;;;;;5077141;28;20039;-67
2024/01/31 08:56:31;;;;;;;2.72;1.90;;;19.80;49.20;;;;;;5083494;28;20023;-67
2024/01/31 08:58:56;;;;;;;2.58;1.80;;;19.80;49.20;;;;;;5079456;28;20016;-67
2024/01/31 09:01:22;;;;;;;2.63;1.73;;;19.80;49.20;;;;;;5077150;28;20067;-67
2024/01/31 09:03:49;;;;;;;2.67;1.83;;;19.80;49.20;;;;;;5077961;28;20031;-68
2024/01/31 09:06:14;;;;;;;3.28;2.00;;;19.80;49.70;;;;;;5078479;28;20123;-67
2024/01/31 09:08:40;;;;;;;3.80;1.88;;;19.80;49.20;;;;;;5080021;28;20107;-67
2024/01/31 09:11:06;;;;;;;2.70;1.90;;;19.80;49.20;;;;;;5079209;28;20056;-67
2024/01/31 09:13:31;;;;;;;2.63;1.70;;;19.80;49.20;;;;;;5080133;28;20307;-67
2024/01/31 09:15:57;;;;;;;3.28;2.00;;;19.80;49.20;;;;;;5079972;28;20519;-67
2024/01/31 09:18:22;;;;;;;3.05;1.80;;;19.80;49.20;;;;;;5080366;28;20059;-67
2024/01/31 09:20:48;;;;;;;3.28;1.90;;;19.80;49.20;;;;;;5078589;28;20024;-67
2024/01/31 09:23:14;;;;;;;3.63;2.08;;;19.80;49.20;;;;;;5062074;28;20571;-68
2024/01/31 09:25:39;;;;;;;2.55;1.90;;;19.80;49.20;;;;;;5079096;28;20098;-67
2024/01/31 09:28:05;;;;;;;3.08;2.10;;;19.80;49.20;;;;;;5080089;28;20029;-67
2024/01/31 09:30:30;;;;;;;2.45;1.80;;;19.80;49.20;;;;;;5078449;28;20032;-67
2024/01/31 09:32:56;;;;;;;2.42;1.83;;;19.80;49.20;;;;;;5079023;28;20115;-67
2024/01/31 09:35:22;;;;;;;2.92;1.90;;;19.80;49.20;;;;;;5077423;28;20388;-67
2024/01/31 09:37:47;;;;;;;2.97;1.70;;;19.80;49.20;;;;;;5078370;28;20400;-67
2024/01/31 09:40:15;;;;;;;2.72;1.70;;;19.80;49.20;;;;;;5079622;28;20028;-67
2024/01/31 09:42:43;;;;;;;3.45;1.90;;;19.80;49.20;;;;;;5079415;28;20047;-67
2024/01/31 09:45:12;;;;;;;3.15;1.80;;;19.70;49.20;;;;;;5078713;28;20476;-67
2024/01/31 09:47:40;;;;;;;3.33;1.83;;;19.70;49.10;;;;;;5078632;28;20020;-67
2024/01/31 09:50:07;;;;;;;3.13;1.90;;;19.70;49.10;;;;;;5077039;28;20616;-67
2024/01/31 09:52:38;;;;;;;3.00;2.08;;;19.70;49.10;;;;;;5077335;28;20471;-67
2024/01/31 09:55:08;;;;;;;2.80;1.80;;;19.80;49.20;;;;;;5078093;28;20115;-67
2024/01/31 09:57:34;;;;;;;2.90;1.77;;;19.70;49.10;;;;;;5079075;28;20504;-67
2024/01/31 10:00:01;;;;;;;3.33;2.00;;;19.70;49.10;;;;;;5077337;28;20169;-67
2024/01/31 10:02:29;;;;;;;3.80;1.90;;;19.70;49.10;;;;;;5077963;28;20056;-63
2024/01/31 10:04:54;;;;;;;2.67;1.75;;;19.70;49.10;;;;;;5058879;28;20428;-62
2024/01/31 10:07:30;;;;;;;3.08;1.77;;;19.70;49.20;;;;;;5075706;28;20021;-62
2024/01/31 10:09:56;;;;;;;3.15;1.83;;;19.70;49.20;;;;;;5078523;28;20055;-62
2024/01/31 10:12:23;;;;;;;3.05;1.88;;;19.70;49.20;;;;;;5076337;28;20031;-74
2024/01/31 10:14:51;;;;;;;2.95;1.83;;;19.80;49.20;;;;;;5079722;28;20059;-73
2024/01/31 10:17:17;;;;;;;2.60;1.70;;;19.70;49.10;;;;;;5080060;28;20472;-72
2024/01/31 10:19:43;;;;;;;2.60;1.75;;;19.70;49.10;;;;;;5076567;28;20031;-72
2024/01/31 10:22:09;;;;;;;2.72;1.90;;;19.70;49.10;;;;;;5078607;28;20391;-74
2024/01/31 10:24:34;;;;;;;3.03;1.90;;;19.70;49.20;;;;;;5077978;28;20024;-72
2024/01/31 10:27:05;;;;;;;2.65;1.70;;;19.70;49.10;;;;;;5079126;28;20027;-74
2024/01/31 10:29:32;;;;;;;3.63;1.90;;;19.70;49.20;;;;;;5078224;28;20047;-72
2024/01/31 10:31:57;;;;;;;3.28;1.95;;;19.70;49.20;;;;;;5079741;28;20020;-74
2024/01/31 10:34:24;;;;;;;2.55;1.70;;;19.70;49.40;;;;;;5077699;28;20032;-74
2024/01/31 10:36:51;;;;;;;2.55;1.80;;;19.70;49.20;;;;;;5069948;28;20038;-73
2024/01/31 10:39:20;;;;;;;2.65;1.90;;;19.70;49.20;;;;;;5083684;28;20038;-71
2024/01/31 10:41:47;;;;;;;2.42;1.80;;;19.70;49.10;;;;;;5083218;28;20024;-73
2024/01/31 10:44:14;;;;;;;3.15;1.80;;;19.70;49.20;;;;;;5072481;28;20213;-71
2024/01/31 10:46:41;;;;;;;3.80;1.83;;;19.70;49.20;;;;;;5072149;28;20040;-74
2024/01/31 10:49:06;;;;;;;2.65;1.75;;;19.70;49.20;;;;;;5081138;28;20499;-74
2024/01/31 10:51:34;;;;;;;2.30;1.67;;;19.70;49.20;;;;;;5081779;28;20032;-62
2024/01/31 10:54:02;;;;;;;2.95;1.80;;;19.70;49.20;;;;;;5073292;28;20028;-62
2024/01/31 10:56:28;;;;;;;2.50;1.80;;;19.70;49.20;;;;;;5066436;28;20028;-64
2024/01/31 10:58:57;;;;;;;3.03;2.05;;;19.70;49.10;;;;;;5081735;28;20506;-61
2024/01/31 11:01:32;;;;;;;2.92;1.70;;;19.70;49.10;;;;;;5082569;28;20602;-63
2024/01/31 11:03:57;;;;;;;2.90;2.05;;;19.70;49.20;;;;;;5079309;28;20455;-62
2024/01/31 11:06:24;;;;;;;2.30;1.60;;;19.70;49.20;;;;;;5081644;28;20120;-61
2024/01/31 11:08:51;;;;;;;3.20;1.60;;;19.70;49.20;;;;;;5084085;28;20032;-62
2024/01/31 11:11:20;;;;;;;2.75;1.90;;;19.70;49.10;;;;;;5080763;28;20085;-64
2024/01/31 11:13:46;;;;;;;2.53;1.83;;;19.70;49.20;;;;;;5081609;28;20524;-63
2024/01/31 11:16:22;;;;;;;3.28;1.90;;;19.70;49.20;;;;;;5079683;28;20071;-64
2024/01/31 11:18:54;;;;;;;2.90;1.90;;;19.70;49.10;;;;;;5079905;28;20031;-64
2024/01/31 11:21:21;;;;;;;2.50;1.95;;;19.70;49.10;;;;;;5080523;28;20106;-64
2024/01/31 11:23:47;;;;;;;2.83;2.00;;;19.70;49.10;;;;;;5081285;28;20139;-64
2024/01/31 11:26:13;;;;;;;2.88;2.05;;;19.70;49.10;;;;;;5080624;28;20124;-63
2024/01/31 11:28:42;;;;;;;3.17;1.80;;;19.70;49.00;;;;;;5080946;28;20039;-63
2024/01/31 11:31:08;;;;;;;2.78;1.90;;;19.70;49.00;;;;;;5081171;28;20496;-63
2024/01/31 11:33:33;;;;;;;2.83;1.83;;;19.70;49.00;;;;;;5080317;28;20032;-64
2024/01/31 11:35:59;;;;;;;2.80;2.00;;;19.70;49.00;;;;;;5077356;28;20047;-63
2024/01/31 11:38:25;;;;;;;3.55;2.20;;;19.60;48.90;;;;;;5077585;28;20516;-63
2024/01/31 11:40:52;;;;;;;2.92;2.00;;;19.70;48.90;;;;;;5078244;28;20376;-64
2024/01/31 11:43:17;;;;;;;3.00;2.20;;;19.70;48.90;;;;;;5080883;28;20071;-64
2024/01/31 11:45:44;;;;;;;2.90;2.30;;;19.60;48.80;;;;;;5079059;28;20399;-63
2024/01/31 11:48:14;;;;;;;3.17;2.00;;;19.70;48.90;;;;;;5079157;28;20052;-63
2024/01/31 11:50:39;;;;;;;3.47;2.08;;;19.70;48.90;;;;;;5079550;28;20507;-63
2024/01/31 11:53:05;;;;;;;3.22;2.10;;;19.70;48.90;;;;;;5070401;28;20036;-64
2024/01/31 11:55:33;;;;;;;3.85;2.22;;;19.60;48.80;;;;;;5079166;28;20529;-63
2024/01/31 11:57:59;;;;;;;2.97;2.10;;;19.60;48.80;;;;;;5078778;28;20460;-64
2024/01/31 12:00:25;;;;;;;2.65;1.75;;;19.70;48.90;;;;;;5078178;28;20111;-63
2024/01/31 12:02:51;;;;;;;3.17;2.10;;;19.70;48.90;;;;;;5071109;28;20042;-64
2024/01/31 12:05:17;;;;;;;3.30;2.30;;;19.60;48.80;;;;;;5078849;28;20461;-64
2024/01/31 12:07:43;;;;;;;3.00;1.95;;;19.60;48.80;;;;;;5078340;28;20079;-63
2024/01/31 12:10:09;;;;;;;3.10;2.00;;;19.60;48.80;;;;;;5079500;28;20056;-63
2024/01/31 12:12:41;;;;;;;3.20;2.15;;;19.70;48.90;;;;;;5062473;28;20255;-63
2024/01/31 12:15:13;;;;;;;3.13;2.00;;;19.60;48.90;;;;;;5077588;28;20484;-63
2024/01/31 12:17:39;;;;;;;2.78;1.90;;;19.60;48.90;;;;;;5079476;28;20503;-64
2024/01/31 12:20:10;;;;;;;2.90;2.10;;;19.60;48.90;;;;;;5075566;28;20399;-64
2024/01/31 12:22:37;;;;;;;2.97;1.90;;;19.60;48.90;;;;;;5080331;28;20059;-63
2024/01/31 12:25:04;;;;;;;2.83;2.00;;;19.60;48.90;;;;;;5093605;28;20036;-64
2024/01/31 12:27:30;;;;;;;3.30;2.00;;;19.70;48.90;;;;;;5081000;28;20479;-63
2024/01/31 12:29:57;;;;;;;3.30;2.10;;;19.60;48.90;;;;;;5039128;28;1175376;-62
2024/01/31 12:32:26;;;;;;;2.75;2.15;;;19.60;49.40;;;;;;5069821;28;20058;-63
2024/01/31 12:34:52;;;;;;;3.20;2.10;;;19.70;49.00;;;;;;5052660;28;20055;-61
2024/01/31 12:37:18;;;;;;;2.80;1.90;;;19.60;48.90;;;;;;5069797;28;20036;-63
2024/01/31 12:39:44;;;;;;;3.00;1.85;;;19.70;48.90;;;;;;5095422;28;20055;-62
2024/01/31 12:42:10;;;;;;;2.50;1.80;;;19.60;48.90;;;;;;5079007;28;20034;-61